Time;durP1;ratioP1;P1;durP2;ratioP2;P2;SDS_P1;SDS_P2;PMS_P1;PMS_P2;Temp;Humidity;BMP_temperature;BMP_pressure;BME280_temperature;BME280_humidity;BME280_pressure;Samples;Min_cycle;Max_cycle;Signal;HPM_P1;HPM_P2
2022/07/16 20:45:36;;;;;;;1.00;1.00;;;18.90;97.00;;;;;;5130124;27;20537;-61
2022/07/16 20:48:02;;;;;;;0.00;0.00;;;18.30;99.90;;;;;;5109569;28;20176;-60
2022/07/16 20:50:28;;;;;;;0.23;0.13;;;17.50;99.90;;;;;;5109625;28;20620;-59
2022/07/16 20:52:54;;;;;;;0.53;0.50;;;17.40;99.90;;;;;;5109266;28;20180;-61
2022/07/16 20:55:19;;;;;;;9.53;1.50;;;17.40;99.90;;;;;;5109508;28;20636;-59
2022/07/16 20:57:45;;;;;;;0.00;0.00;;;17.40;99.90;;;;;;5109388;28;20168;-67
2022/07/16 21:00:11;;;;;;;0.40;0.40;;;17.40;99.90;;;;;;5109411;28;20251;-59
2022/07/16 21:02:38;;;;;;;0.20;0.20;;;17.40;99.90;;;;;;5109581;28;20179;-60
2022/07/16 21:05:05;;;;;;;0.00;0.00;;;17.30;99.90;;;;;;5109002;28;20659;-60
2022/07/16 21:07:31;;;;;;;0.00;0.00;;;17.30;99.90;;;;;;5109116;28;20525;-61
2022/07/16 21:09:56;;;;;;;0.63;0.47;;;17.30;99.90;;;;;;5108930;28;20176;-59
2022/07/16 21:12:22;;;;;;;0.00;0.00;;;17.30;99.90;;;;;;5108707;28;20187;-60
2022/07/16 21:14:48;;;;;;;0.30;0.20;;;17.30;99.90;;;;;;5109211;28;20176;-58
2022/07/16 21:17:14;;;;;;;0.20;0.17;;;17.30;99.90;;;;;;5090610;28;20183;-60
2022/07/16 21:19:39;;;;;;;10.83;3.73;;;17.30;99.90;;;;;;5109083;28;20262;-59
2022/07/16 21:22:05;;;;;;;0.00;0.00;;;17.30;99.90;;;;;;5108574;28;20181;-59
2022/07/16 21:24:31;;;;;;;1.13;0.70;;;17.20;99.90;;;;;;5108960;28;20212;-58
2022/07/16 21:26:56;;;;;;;0.33;0.07;;;17.20;99.90;;;;;;5109415;28;20251;-60
2022/07/16 21:29:22;;;;;;;0.00;0.00;;;17.20;99.90;;;;;;5108960;28;20196;-58
2022/07/16 21:31:48;;;;;;;2.40;1.57;;;17.10;99.90;;;;;;5108817;28;20241;-60
2022/07/16 21:34:13;;;;;;;0.00;0.00;;;17.10;99.90;;;;;;5108909;28;20632;-59
2022/07/16 21:36:39;;;;;;;0.80;0.47;;;17.10;99.90;;;;;;5090598;28;20209;-60
2022/07/16 21:39:05;;;;;;;0.43;0.30;;;17.20;99.90;;;;;;5088175;28;20259;-58
2022/07/16 21:41:31;;;;;;;0.27;0.27;;;17.20;99.90;;;;;;5088399;28;20774;-58
2022/07/16 21:43:57;;;;;;;0.10;0.10;;;17.20;99.90;;;;;;5089695;28;20236;-59
2022/07/16 21:46:23;;;;;;;0.00;0.00;;;17.10;99.90;;;;;;5108823;28;20185;-60
2022/07/16 21:48:49;;;;;;;0.60;0.47;;;17.10;99.90;;;;;;5108434;28;20188;-61
2022/07/16 21:51:15;;;;;;;1.47;1.33;;;17.10;99.90;;;;;;5108539;28;20172;-59
2022/07/16 21:53:41;;;;;;;0.00;0.00;;;17.10;99.90;;;;;;5108539;28;20539;-59
2022/07/16 21:56:07;;;;;;;0.43;0.43;;;17.00;99.90;;;;;;5099449;28;20180;-59
2022/07/16 21:58:33;;;;;;;0.20;0.10;;;17.00;99.90;;;;;;5094614;28;20519;-59
2022/07/16 22:00:58;;;;;;;0.50;0.50;;;17.00;99.90;;;;;;5094332;28;20188;-59
2022/07/16 22:03:24;;;;;;;0.07;0.03;;;16.90;99.90;;;;;;5094340;28;20252;-61
2022/07/16 22:05:50;;;;;;;0.20;0.20;;;16.90;99.90;;;;;;5094099;28;20275;-60
2022/07/16 22:08:16;;;;;;;0.70;0.53;;;16.80;99.90;;;;;;5094422;28;20242;-60
2022/07/16 22:10:41;;;;;;;0.30;0.30;;;16.80;99.90;;;;;;5094730;28;20494;-58
2022/07/16 22:13:07;;;;;;;2.13;1.00;;;16.70;99.90;;;;;;5094234;28;20173;-58
2022/07/16 22:15:34;;;;;;;1.30;1.10;;;16.70;99.90;;;;;;5094451;28;20267;-58
2022/07/16 22:17:59;;;;;;;0.20;0.20;;;16.70;99.90;;;;;;5093863;28;20867;-59
2022/07/16 22:23:10;;;;;;;1.40;0.83;;;16.80;99.90;;;;;;5093612;28;20553;-59
2022/07/16 22:25:37;;;;;;;0.67;0.67;;;16.80;99.90;;;;;;5093955;28;20279;-59
